aviador You're here:

KLBO Decoded Metar

in
Report Time2018-02-25 11:35:00
UTC Time2018-02-25 11:41:07
Flight Rules vfr VFR
Wind280° at 04 kt
W.Decomp.*RWY 36: 0.7 kt HW 3.9 kt LCW
W.Rank280° ranks 22
Current wind is below 280° avg. (6.4)
Visibility9999 m
Phenomena:N/A
Clouds:N/A
Expected CloudBase > 400 ft AGL from Temp-Dew spread
CeilingNone
Temp00°C
Dew Point-1°C (93% RH)
AAT-3.6°C
QNH1016 hPa
Raw Report
KLBO 251135Z AUTO 28004KT 10SM CLR 00/M01 A3000 RMK AO2=

Extra information for KLBO:More info

Social comments